KRUT Airport (Rutland - Southern Vermont Rgnl) Information

FAA: RUT - ICAO: KRUT

KRUT Airport Location

State Vermont
County Rutland
City Rutland
KRUT Airport is 5 miles south of Rutland, VT.
Latitude 43-31-47.0290N
Longitude 072-56-58.6540W
Elevation 787ft

KRUT Airport METARs

METAR KRUT 200456Z AUTO 00000KT 10SM OVC065 11/07 A2982 RMK AO2 SLP094 T01060072 401390056 PNO $
Altimeter 29.82"
Temperature 10.6°C (51.1°F)
Wind 0° at 0KT
Clouds overcast at 6,500ft
Visibility 10.0mi
Time observed: 2021-10-20T04:56:00Z

KRUT Airport Details

Status Operational
Activation December 1942
Ownership Public
Usage Public
Chart NEW YORK
ATC on-site No
Beacon schedule sunset-sunrise
Beacon color clear green

KRUT Airport Contacts

Owner STATE OF VERMONT
Owner address VTAOT, 1 NATIONAL LIFE DRIVE, MONTPELIER, VT 05633-5001
Owner phone 802-828-2833
Manager GARY L. DAVIS
Manager address RR 2, BOX 1035, UNDERHILL, VT 05489
Manager phone 802-899-2357

KRUT Airport (Rutland - Southern Vermont Rgnl) Radio Frequencies

KRUT (Airport) Radio Frequencies

UNICOM 122.8
Common traffic advisory frequency (CTAF) 122.8